createdAt,value
2018-05-02T00:01:14.369Z,10.10
2018-05-02T00:03:42.451Z,10.20
2018-05-02T00:06:10.957Z,10.30
2018-05-02T00:08:39.390Z,10.10
2018-05-02T00:11:08.233Z,10.20
2018-05-02T00:13:36.337Z,10.20
2018-05-02T00:16:05.137Z,10.20
2018-05-02T00:18:33.178Z,10.20
2018-05-02T00:21:01.542Z,10.20
2018-05-02T00:23:30.121Z,10.30
2018-05-02T00:25:58.144Z,10.30
2018-05-02T00:28:26.294Z,10.20
2018-05-02T00:30:54.602Z,10.30
2018-05-02T00:33:22.654Z,10.20
2018-05-02T00:35:50.815Z,10.20
2018-05-02T00:38:19.126Z,10.20
2018-05-02T00:40:47.184Z,10.00
2018-05-02T00:43:15.428Z,9.90
2018-05-02T00:45:44.989Z,9.90
2018-05-02T00:48:13.010Z,9.80
2018-05-02T00:50:41.471Z,9.90
2018-05-02T00:53:10.004Z,10.00
2018-05-02T00:55:38.067Z,10.00
2018-05-02T00:58:06.301Z,10.00
2018-05-02T01:00:34.827Z,10.00
2018-05-02T01:03:02.877Z,10.00
2018-05-02T01:05:31.442Z,10.00
2018-05-02T01:08:00.907Z,10.10
2018-05-02T01:10:28.961Z,10.10
2018-05-02T01:12:57.499Z,10.10
2018-05-02T01:15:26.217Z,10.00
2018-05-02T01:17:55.009Z,10.00
2018-05-02T01:20:23.520Z,10.00
2018-05-02T01:22:52.089Z,10.00
2018-05-02T01:25:20.147Z,10.00
2018-05-02T01:27:48.677Z,9.90
2018-05-02T01:30:17.227Z,9.90
2018-05-02T01:32:45.278Z,9.90
2018-05-02T01:35:13.491Z,9.70
2018-05-02T01:37:41.702Z,9.80
2018-05-02T01:40:09.758Z,9.80
2018-05-02T01:42:38.011Z,9.90
2018-05-02T01:45:06.397Z,9.80
2018-05-02T01:47:34.480Z,9.90
2018-05-02T01:50:03.169Z,9.90
2018-05-02T01:52:31.700Z,9.90
2018-05-02T01:54:59.786Z,9.90
2018-05-02T01:57:28.287Z,10.00
2018-05-02T01:59:56.840Z,10.00
2018-05-02T02:02:24.911Z,10.00
2018-05-02T02:04:53.446Z,10.00
2018-05-02T02:07:22.095Z,10.00
2018-05-02T02:09:50.113Z,9.90
2018-05-02T02:12:18.623Z,9.80
2018-05-02T02:14:47.108Z,9.80
2018-05-02T02:17:15.153Z,9.60
2018-05-02T02:19:43.392Z,9.70
2018-05-02T02:22:11.936Z,9.80
2018-05-02T02:24:40.001Z,9.70
2018-05-02T02:27:08.535Z,9.70
2018-05-02T02:29:37.063Z,9.70
2018-05-02T02:32:05.198Z,9.80
2018-05-02T02:34:33.359Z,9.70
2018-05-02T02:37:01.901Z,9.70
2018-05-02T02:39:29.950Z,9.70
2018-05-02T02:41:58.508Z,9.80
2018-05-02T02:44:27.224Z,9.80
2018-05-02T02:46:56.013Z,9.90
2018-05-02T02:49:24.563Z,9.90
2018-05-02T02:51:53.092Z,9.90
2018-05-02T02:54:21.132Z,9.70
2018-05-02T02:56:49.680Z,9.80
2018-05-02T02:59:17.886Z,9.80
2018-05-02T03:01:46.694Z,9.60
2018-05-02T03:04:15.134Z,9.60
2018-05-02T03:06:43.680Z,9.70
2018-05-02T03:09:11.733Z,9.70
2018-05-02T03:11:40.256Z,9.70
2018-05-02T03:14:08.464Z,9.70
2018-05-02T03:16:36.503Z,9.80
2018-05-02T03:19:04.802Z,9.70
2018-05-02T03:21:34.252Z,9.80
2018-05-02T03:24:02.307Z,9.80
2018-05-02T03:26:30.460Z,9.90
2018-05-02T03:28:58.957Z,9.90
2018-05-02T03:31:27.789Z,10.00
2018-05-02T03:33:56.298Z,9.90
2018-05-02T03:36:24.509Z,10.00
2018-05-02T03:38:52.567Z,10.00
2018-05-02T03:41:21.101Z,9.90
2018-05-02T03:43:49.267Z,9.80
2018-05-02T03:46:17.313Z,9.80
2018-05-02T03:48:45.408Z,9.90
2018-05-02T03:51:14.170Z,9.90
2018-05-02T03:53:42.226Z,9.90
2018-05-02T03:56:10.753Z,9.90
2018-05-02T03:58:39.299Z,9.80
2018-05-02T04:01:19.122Z,9.60
2018-05-02T04:04:00.043Z,9.50
2018-05-02T04:06:36.888Z,9.50
2018-05-02T04:09:05.138Z,9.50
2018-05-02T04:11:34.214Z,9.60
2018-05-02T04:14:02.596Z,9.60
2018-05-02T04:16:31.142Z,9.70
2018-05-02T04:18:59.176Z,9.70
2018-05-02T04:21:27.285Z,9.60
2018-05-02T04:23:55.651Z,9.60
2018-05-02T04:26:23.716Z,9.70
2018-05-02T04:28:52.248Z,9.80
2018-05-02T04:31:20.460Z,9.70
2018-05-02T04:33:48.510Z,9.80
2018-05-02T04:36:17.068Z,9.80
2018-05-02T04:38:45.609Z,9.90
2018-05-02T04:41:13.662Z,9.90
2018-05-02T04:43:42.207Z,9.90
2018-05-02T04:46:10.437Z,9.90
2018-05-02T04:48:38.486Z,9.90
2018-05-02T04:51:06.734Z,9.90
2018-05-02T04:53:35.269Z,9.90
2018-05-02T04:56:03.337Z,10.00
2018-05-02T04:58:31.861Z,10.00
2018-05-02T05:01:00.136Z,10.00
2018-05-02T05:03:28.207Z,10.00
2018-05-02T05:05:56.365Z,10.00
2018-05-02T05:08:25.114Z,10.00
2018-05-02T05:10:53.913Z,10.10
2018-05-02T05:13:22.121Z,10.00
2018-05-02T05:15:50.419Z,10.10
2018-05-02T05:18:18.470Z,10.20
2018-05-02T05:20:46.946Z,10.20
2018-05-02T05:23:15.132Z,10.00
2018-05-02T05:25:43.183Z,10.20
2018-05-02T05:28:11.592Z,10.10
2018-05-02T05:30:40.077Z,10.00
2018-05-02T05:33:08.148Z,10.10
2018-05-02T05:35:36.399Z,10.00
2018-05-02T05:38:04.733Z,10.10
2018-05-02T05:40:33.544Z,10.10
2018-05-02T05:43:02.059Z,10.10
2018-05-02T05:45:30.600Z,10.20
2018-05-02T05:47:58.651Z,10.10
2018-05-02T05:50:27.177Z,10.30
2018-05-02T05:52:55.739Z,10.20
2018-05-02T05:55:23.793Z,10.40
2018-05-02T05:57:52.325Z,10.40
2018-05-02T06:00:20.871Z,10.30
2018-05-02T06:02:48.922Z,10.30
2018-05-02T06:05:17.484Z,10.30
2018-05-02T06:07:46.801Z,10.40
2018-05-02T06:10:14.834Z,10.30
2018-05-02T06:12:43.071Z,10.30
2018-05-02T06:15:11.237Z,10.40
2018-05-02T06:17:39.293Z,10.40
2018-05-02T06:20:07.526Z,10.40
2018-05-02T06:22:36.276Z,10.40
2018-05-02T06:25:04.335Z,10.50
2018-05-02T06:27:32.874Z,10.50
2018-05-02T06:30:01.415Z,10.50
2018-05-02T06:32:29.464Z,10.30
2018-05-02T06:34:57.990Z,10.30
2018-05-02T06:37:26.738Z,10.40
2018-05-02T06:39:55.542Z,10.50
2018-05-02T06:42:24.048Z,10.50
2018-05-02T06:44:52.613Z,10.50
2018-05-02T06:47:20.669Z,10.70
2018-05-02T06:49:49.198Z,10.70
2018-05-02T06:52:17.390Z,10.70
2018-05-02T06:54:45.482Z,10.80
2018-05-02T06:57:13.878Z,10.90
2018-05-02T06:59:42.448Z,11.00
2018-05-02T07:02:11.244Z,11.10
2018-05-02T07:04:39.780Z,11.10
2018-05-02T07:07:08.391Z,11.10
2018-05-02T07:09:36.409Z,11.00
2018-05-02T07:12:04.632Z,11.00
2018-05-02T07:14:33.860Z,11.10
2018-05-02T07:17:01.920Z,11.00
2018-05-02T07:19:30.343Z,11.20
2018-05-02T07:21:58.773Z,11.00
2018-05-02T07:24:26.811Z,10.90
2018-05-02T07:26:55.236Z,10.90
2018-05-02T07:29:24.039Z,11.00
2018-05-02T07:31:52.119Z,11.10
2018-05-02T07:34:20.609Z,11.20
2018-05-02T07:36:48.764Z,11.20
2018-05-02T07:39:16.825Z,11.10
2018-05-02T07:41:45.133Z,11.20
2018-05-02T07:44:13.878Z,11.30
2018-05-02T07:46:42.680Z,11.50
2018-05-02T07:49:11.196Z,11.40
2018-05-02T07:51:39.746Z,11.50
2018-05-02T07:54:07.795Z,11.50
2018-05-02T07:56:36.370Z,11.60
2018-05-02T07:59:04.521Z,11.60
2018-05-02T08:01:32.581Z,11.50
2018-05-02T08:04:00.844Z,11.20
2018-05-02T08:06:29.103Z,11.30
2018-05-02T08:08:57.150Z,11.40
2018-05-02T08:11:25.676Z,11.50
2018-05-02T08:13:53.741Z,11.80
2018-05-02T08:16:21.847Z,12.00
2018-05-02T08:18:50.511Z,12.00
2018-05-02T08:21:18.574Z,12.00
2018-05-02T08:23:46.637Z,12.00
2018-05-02T08:26:15.030Z,12.00
2018-05-02T08:28:43.088Z,12.20
2018-05-02T08:31:11.182Z,12.40
2018-05-02T08:33:39.332Z,12.50
2018-05-02T08:36:07.402Z,12.60
2018-05-02T08:38:35.473Z,12.70
2018-05-02T08:41:03.849Z,12.70
2018-05-02T08:43:31.923Z,12.60
2018-05-02T08:45:59.995Z,12.60
2018-05-02T08:48:28.576Z,12.60
2018-05-02T08:50:56.646Z,12.70
2018-05-02T08:53:24.725Z,12.60
2018-05-02T08:55:53.096Z,12.70
2018-05-02T08:58:21.188Z,12.70
2018-05-02T09:00:49.244Z,12.70
2018-05-02T09:03:17.634Z,12.90
2018-05-02T09:05:45.699Z,13.10
2018-05-02T09:08:14.246Z,13.10
2018-05-02T09:10:42.758Z,12.90
2018-05-02T09:13:10.847Z,13.00
2018-05-02T09:15:38.959Z,13.00
2018-05-02T09:18:07.276Z,13.00
2018-05-02T09:20:35.345Z,12.90
2018-05-02T09:23:03.414Z,13.00
2018-05-02T09:25:31.793Z,13.10
2018-05-02T09:27:59.870Z,13.10
2018-05-02T09:30:27.931Z,13.40
2018-05-02T09:32:56.333Z,13.50
2018-05-02T09:35:24.411Z,13.70
2018-05-02T09:37:52.469Z,13.80
2018-05-02T09:40:20.848Z,13.40
2018-05-02T09:42:48.921Z,13.40
2018-05-02T09:45:16.983Z,13.60
2018-05-02T09:47:45.415Z,13.80
2018-05-02T09:50:14.228Z,13.90
2018-05-02T09:52:42.287Z,13.90
2018-05-02T09:55:10.823Z,14.20
2018-05-02T09:57:38.897Z,14.30
2018-05-02T10:00:07.730Z,14.40
2018-05-02T10:02:36.244Z,14.30
2018-05-02T10:05:04.309Z,14.50
2018-05-02T10:07:32.382Z,14.50
2018-05-02T10:10:01.257Z,14.50
2018-05-02T10:12:29.387Z,14.70
2018-05-02T10:14:57.388Z,14.80
2018-05-02T10:17:25.902Z,14.90
2018-05-02T10:19:53.966Z,14.80
2018-05-02T10:22:22.077Z,14.70
2018-05-02T10:24:51.361Z,14.30
2018-05-02T10:27:19.428Z,14.30
2018-05-02T10:29:47.501Z,14.40
2018-05-02T10:32:15.860Z,14.30
2018-05-02T10:34:43.922Z,14.20
2018-05-02T10:37:11.987Z,14.30
2018-05-02T10:39:40.194Z,14.20
2018-05-02T10:42:08.257Z,14.40
2018-05-02T10:44:36.325Z,14.30
2018-05-02T10:47:04.620Z,14.30
2018-05-02T10:49:32.688Z,14.40
2018-05-02T10:52:00.789Z,14.40
2018-05-02T10:54:29.436Z,14.50
2018-05-02T10:56:57.493Z,14.40
2018-05-02T10:59:25.599Z,14.00
2018-05-02T11:01:54.866Z,14.30
2018-05-02T11:04:22.938Z,14.30
2018-05-02T11:06:51.030Z,14.50
2018-05-02T11:09:19.395Z,14.60
2018-05-02T11:11:47.950Z,14.70
2018-05-02T11:14:16.043Z,15.00
2018-05-02T11:16:44.528Z,15.30
2018-05-02T11:19:12.594Z,15.30
2018-05-02T11:21:40.661Z,15.40
2018-05-02T11:24:09.056Z,15.70
2018-05-02T11:26:37.133Z,15.80
2018-05-02T11:29:05.196Z,15.90
2018-05-02T11:31:33.448Z,16.00
2018-05-02T11:34:01.504Z,16.10
2018-05-02T11:36:29.567Z,16.30
2018-05-02T11:38:58.099Z,16.40
2018-05-02T11:41:26.163Z,16.20
2018-05-02T11:43:54.251Z,16.00
2018-05-02T11:46:23.534Z,15.90
2018-05-02T11:48:51.601Z,15.80
2018-05-02T11:51:19.677Z,16.00
2018-05-02T11:53:48.067Z,16.00
2018-05-02T11:56:16.129Z,16.10
2018-05-02T11:58:44.202Z,15.70
2018-05-02T12:01:12.901Z,15.70
2018-05-02T12:03:41.721Z,16.10
2018-05-02T12:06:09.778Z,16.10
2018-05-02T12:08:38.350Z,16.10
2018-05-02T12:11:07.181Z,15.70
2018-05-02T12:13:35.868Z,15.70
2018-05-02T12:16:04.414Z,15.90
2018-05-02T12:18:32.448Z,16.00
2018-05-02T12:21:00.528Z,16.30
2018-05-02T12:23:29.225Z,16.50
2018-05-02T12:25:58.052Z,16.60
2018-05-02T12:28:26.119Z,16.60
2018-05-02T12:30:54.392Z,16.50
2018-05-02T12:33:22.462Z,16.20
2018-05-02T12:35:50.534Z,16.60
2018-05-02T12:38:19.180Z,16.90
2018-05-02T12:40:47.264Z,17.00
2018-05-02T12:43:15.314Z,16.70
2018-05-02T12:45:43.560Z,16.80
2018-05-02T12:48:11.633Z,16.80
2018-05-02T12:50:39.700Z,16.50
2018-05-02T12:53:08.209Z,16.60
2018-05-02T12:55:36.290Z,16.70
2018-05-02T12:58:04.350Z,16.40
2018-05-02T13:00:32.730Z,16.10
2018-05-02T13:03:00.826Z,16.00
2018-05-02T13:05:29.669Z,16.00
2018-05-02T13:07:58.172Z,16.00
2018-05-02T13:10:26.306Z,15.90
2018-05-02T13:12:54.330Z,15.80
2018-05-02T13:15:23.169Z,15.80
2018-05-02T13:17:51.243Z,15.90
2018-05-02T13:20:19.311Z,16.00
2018-05-02T13:22:47.553Z,15.90
2018-05-02T13:25:16.386Z,15.50
2018-05-02T13:27:44.453Z,15.50
2018-05-02T13:30:12.682Z,15.50
2018-05-02T13:32:41.515Z,15.30
2018-05-02T13:35:09.605Z,15.30
2018-05-02T13:37:38.109Z,15.50
2018-05-02T13:40:06.181Z,15.40
2018-05-02T13:42:34.273Z,15.10
2018-05-02T13:45:03.561Z,15.40
2018-05-02T13:47:32.398Z,15.40
2018-05-02T13:50:00.473Z,15.40
2018-05-02T13:52:29.020Z,15.40
2018-05-02T13:54:57.845Z,15.10
2018-05-02T13:57:25.989Z,15.10
2018-05-02T13:59:54.131Z,15.30
2018-05-02T14:02:22.193Z,15.30
2018-05-02T14:04:50.266Z,15.30
2018-05-02T14:07:18.682Z,15.40
2018-05-02T14:09:46.759Z,15.40
2018-05-02T14:12:14.823Z,15.50
2018-05-02T14:14:43.186Z,15.40
2018-05-02T14:17:12.626Z,15.40
2018-05-02T14:19:40.692Z,15.30
2018-05-02T14:22:09.230Z,15.40
2018-05-02T14:24:37.296Z,15.50
2018-05-02T14:27:05.373Z,15.50
2018-05-02T14:29:33.834Z,15.40
2018-05-02T14:32:01.905Z,15.50
2018-05-02T14:34:29.971Z,15.50
2018-05-02T14:36:58.595Z,15.50
2018-05-02T14:39:27.433Z,15.20
2018-05-02T14:41:55.539Z,15.10
2018-05-02T14:44:24.028Z,15.20
2018-05-02T14:46:52.848Z,15.20
2018-05-02T14:49:20.915Z,15.20
2018-05-02T14:51:49.299Z,15.20
2018-05-02T14:54:17.364Z,15.00
2018-05-02T14:56:45.429Z,15.10
2018-05-02T14:59:13.990Z,15.10
2018-05-02T15:01:42.833Z,15.10
2018-05-02T15:04:10.897Z,15.00
2018-05-02T15:06:39.447Z,14.90
2018-05-02T15:09:07.533Z,15.00
2018-05-02T15:11:35.601Z,15.00
2018-05-02T15:14:04.051Z,14.80
2018-05-02T15:16:32.118Z,14.70
2018-05-02T15:19:00.849Z,14.70
2018-05-02T15:21:29.393Z,14.60
2018-05-02T15:23:58.225Z,14.40
2018-05-02T15:26:26.304Z,14.40
2018-05-02T15:28:54.853Z,14.50
2018-05-02T15:31:22.917Z,14.40
2018-05-02T15:33:51.748Z,14.30
2018-05-02T15:36:19.997Z,14.30
2018-05-02T15:38:48.078Z,14.20
2018-05-02T15:41:16.155Z,14.30
2018-05-02T15:43:44.777Z,14.20
2018-05-02T15:46:12.855Z,14.20
2018-05-02T15:48:40.920Z,14.30
2018-05-02T15:51:09.052Z,14.30
2018-05-02T15:53:37.129Z,14.30
2018-05-02T15:56:05.233Z,14.20
2018-05-02T15:58:33.462Z,14.30
2018-05-02T16:01:01.457Z,14.30
2018-05-02T16:03:29.545Z,14.20
2018-05-02T16:05:58.027Z,14.20
2018-05-02T16:08:26.095Z,14.30
2018-05-02T16:10:54.160Z,14.30
2018-05-02T16:13:22.550Z,14.40
2018-05-02T16:15:50.623Z,14.50
2018-05-02T16:18:18.696Z,14.50
2018-05-02T16:20:47.739Z,14.50
2018-05-02T16:23:16.536Z,14.20
2018-05-02T16:25:44.622Z,14.20
2018-05-02T16:28:13.135Z,14.20
2018-05-02T16:30:41.192Z,14.10
2018-05-02T16:33:09.342Z,14.10
2018-05-02T16:35:37.660Z,14.00
2018-05-02T16:38:05.723Z,13.90
2018-05-02T16:40:33.806Z,14.00
2018-05-02T16:43:01.979Z,13.80
2018-05-02T16:45:30.035Z,13.80
2018-05-02T16:47:58.142Z,13.90
2018-05-02T16:50:27.297Z,13.90
2018-05-02T16:52:55.366Z,13.90
2018-05-02T16:55:23.436Z,13.90
2018-05-02T16:57:51.825Z,14.00
2018-05-02T17:00:19.895Z,14.00
2018-05-02T17:02:47.978Z,13.80
2018-05-02T17:05:16.348Z,13.90
2018-05-02T17:07:44.424Z,13.90
2018-05-02T17:10:12.498Z,13.90
2018-05-02T17:12:40.874Z,14.00
2018-05-02T17:15:08.927Z,14.10
2018-05-02T17:17:37.044Z,14.20
2018-05-02T17:20:05.387Z,14.20
2018-05-02T17:22:33.637Z,14.20
2018-05-02T17:25:01.709Z,14.20
2018-05-02T17:27:30.218Z,14.20
2018-05-02T17:29:58.282Z,14.20
2018-05-02T17:32:26.360Z,14.10
2018-05-02T17:34:54.764Z,14.20
2018-05-02T17:37:23.600Z,14.10
2018-05-02T17:39:51.671Z,14.00
2018-05-02T17:42:19.877Z,13.90
2018-05-02T17:44:47.958Z,13.90
2018-05-02T17:47:16.036Z,13.90
2018-05-02T17:49:45.011Z,13.90
2018-05-02T17:52:13.081Z,13.90
2018-05-02T17:54:41.156Z,13.90
2018-05-02T17:57:09.512Z,13.90
2018-05-02T17:59:37.589Z,13.80
2018-05-02T18:02:05.652Z,13.70
2018-05-02T18:04:34.037Z,13.70
2018-05-02T18:07:02.126Z,13.60
2018-05-02T18:09:30.791Z,13.60
2018-05-02T18:11:59.172Z,13.50
2018-05-02T18:14:27.244Z,13.40
2018-05-02T18:16:55.317Z,13.40
2018-05-02T18:19:23.454Z,13.20
2018-05-02T18:21:51.518Z,13.20
2018-05-02T18:24:20.004Z,13.10
2018-05-02T18:26:48.552Z,13.00
2018-05-02T18:29:17.382Z,12.80
2018-05-02T18:31:45.440Z,12.80
2018-05-02T18:34:13.824Z,12.80
2018-05-02T18:36:41.893Z,12.80
2018-05-02T18:39:09.962Z,12.70
2018-05-02T18:41:38.501Z,12.60
2018-05-02T18:44:06.582Z,12.60
2018-05-02T18:46:34.651Z,12.60
2018-05-02T18:49:03.953Z,12.60
2018-05-02T18:51:32.783Z,12.60
2018-05-02T18:54:00.851Z,12.60
2018-05-02T18:56:29.097Z,12.60
2018-05-02T18:58:57.919Z,12.60
2018-05-02T19:01:26.000Z,12.50
2018-05-02T19:03:54.551Z,12.60
2018-05-02T19:06:23.365Z,12.60
2018-05-02T19:08:51.434Z,12.60
2018-05-02T19:11:19.801Z,12.60
2018-05-02T19:13:53.637Z,12.50
2018-05-02T19:16:22.009Z,12.40
2018-05-02T19:18:55.769Z,12.50
2018-05-02T19:21:24.113Z,12.50
2018-05-02T19:23:52.214Z,12.40
2018-05-02T19:26:27.900Z,12.40
2018-05-02T19:28:56.271Z,12.40
2018-05-02T19:31:30.037Z,12.50
2018-05-02T19:33:59.001Z,12.50
2018-05-02T19:36:27.067Z,12.50
2018-05-02T19:38:55.185Z,12.40
2018-05-02T19:41:30.013Z,12.30
2018-05-02T19:44:02.813Z,12.40
2018-05-02T19:46:31.064Z,12.30
2018-05-02T19:48:59.123Z,12.40
2018-05-02T19:51:32.871Z,12.30
2018-05-02T19:54:01.392Z,12.30
2018-05-02T19:56:29.469Z,12.40
2018-05-02T19:58:57.537Z,12.40
2018-05-02T20:01:31.628Z,12.40
2018-05-02T20:04:00.519Z,12.40
2018-05-02T20:06:29.124Z,12.40
2018-05-02T20:09:02.889Z,12.40
2018-05-02T20:11:37.020Z,12.40
2018-05-02T20:14:07.731Z,12.40
2018-05-02T20:16:36.172Z,12.40
2018-05-02T20:19:04.344Z,12.40
2018-05-02T20:21:32.420Z,12.40
2018-05-02T20:24:01.307Z,12.40
2018-05-02T20:26:29.840Z,12.40
2018-05-02T20:28:57.910Z,12.40
2018-05-02T20:31:26.116Z,12.40
2018-05-02T20:33:54.184Z,12.50
2018-05-02T20:36:22.486Z,12.40
2018-05-02T20:38:50.944Z,12.40
2018-05-02T20:41:19.000Z,12.30
2018-05-02T20:43:47.084Z,12.30
2018-05-02T20:46:15.780Z,12.40
2018-05-02T20:48:43.854Z,12.30
2018-05-02T20:51:11.925Z,12.20
2018-05-02T20:53:40.593Z,12.30
2018-05-02T20:56:08.675Z,12.30
2018-05-02T20:58:36.738Z,12.30
2018-05-02T21:01:05.432Z,12.30
2018-05-02T21:03:33.525Z,12.30
2018-05-02T21:06:02.360Z,12.30
2018-05-02T21:08:30.865Z,12.30
2018-05-02T21:10:58.945Z,12.30
2018-05-02T21:13:27.013Z,12.20
2018-05-02T21:15:55.405Z,12.30
2018-05-02T21:18:23.495Z,12.30
2018-05-02T21:20:52.320Z,12.10
2018-05-02T21:23:20.523Z,12.10
2018-05-02T21:25:48.593Z,12.10
2018-05-02T21:28:16.761Z,12.10
2018-05-02T21:30:45.154Z,12.20
2018-05-02T21:33:13.228Z,12.20
2018-05-02T21:35:41.291Z,12.20
2018-05-02T21:38:09.672Z,12.10
2018-05-02T21:40:37.818Z,12.10
2018-05-02T21:43:05.796Z,12.10
2018-05-02T21:45:34.100Z,12.10
2018-05-02T21:48:02.172Z,12.00
2018-05-02T21:50:30.240Z,12.00
2018-05-02T21:52:58.398Z,11.90
2018-05-02T21:55:26.461Z,11.90
2018-05-02T21:57:54.522Z,11.90
2018-05-02T22:00:22.716Z,11.90
2018-05-02T22:02:50.781Z,11.90
2018-05-02T22:05:18.912Z,11.90
2018-05-02T22:07:47.370Z,12.00
2018-05-02T22:10:16.203Z,11.90
2018-05-02T22:12:44.279Z,11.90
2018-05-02T22:15:12.813Z,11.80
2018-05-02T22:17:41.639Z,11.80
2018-05-02T22:20:09.699Z,11.80
2018-05-02T22:22:38.085Z,11.70
2018-05-02T22:25:06.181Z,11.70
2018-05-02T22:27:34.256Z,11.70
2018-05-02T22:30:03.263Z,11.80
2018-05-02T22:32:31.289Z,11.70
2018-05-02T22:34:59.353Z,11.70
2018-05-02T22:37:27.602Z,11.70
2018-05-02T22:39:56.453Z,11.70
2018-05-02T22:42:26.335Z,11.70
2018-05-02T22:44:54.857Z,11.70
2018-05-02T22:47:22.935Z,11.80
2018-05-02T22:49:51.003Z,11.80
2018-05-02T22:52:19.690Z,11.80
2018-05-02T22:54:47.783Z,11.70
2018-05-02T22:57:17.046Z,11.40
2018-05-02T22:59:45.117Z,11.40
2018-05-02T23:02:13.199Z,11.50
2018-05-02T23:04:41.353Z,11.50
2018-05-02T23:07:09.421Z,11.50
2018-05-02T23:09:37.481Z,11.50
2018-05-02T23:12:06.131Z,11.50
2018-05-02T23:14:34.971Z,11.40
2018-05-02T23:17:03.038Z,11.40
2018-05-02T23:19:31.218Z,11.40
2018-05-02T23:21:59.296Z,11.40
2018-05-02T23:24:27.370Z,11.30
2018-05-02T23:26:56.073Z,11.20
2018-05-02T23:29:24.144Z,11.30
2018-05-02T23:31:52.672Z,11.20
2018-05-02T23:34:21.196Z,11.20
2018-05-02T23:36:49.270Z,11.10
2018-05-02T23:39:17.338Z,11.10
2018-05-02T23:41:45.722Z,11.10
2018-05-02T23:44:13.790Z,11.00
2018-05-02T23:46:41.848Z,11.00
2018-05-02T23:49:10.246Z,11.00
2018-05-02T23:51:38.314Z,11.00
2018-05-02T23:54:06.394Z,10.90
2018-05-02T23:56:34.560Z,10.80
2018-05-02T23:59:02.628Z,10.70
